KLAN

Capital Region International Airport

Lansing, Michigan, USA
KLAN 182340Z 1900/1924 01006KT P6SM OVC050 FM190230 06006KT 2SM -SN BR OVC015 FM190600 06009KT 1 1/2SM -SN BR OVC007 FM191300 05011G20KT 1 1/2SM -SN OVC017 FM191700 05014KT P6SM OVC015
Issued Valid From Valid To
Jan-18 @ 23:40 UTC
(3 hours ago)
Jan-19 @ 00:00 UTC
(2 hours ago)
Jan-20 @ 00:00 UTC
(in 22 hours)
Jan-19 @ 00:00 to Jan-19 @ 02:30
KLAN 182340Z 1900/1924 01006KT P6SM OVC050
Wind Visibility Clouds
10° at 6 knots Greater than 6 miles
  • Overcast at 5,000' AGL
From Jan-19 @ 02:30 to Jan-19 @ 06:00
FM190230 06006KT 2SM -SN BR OVC015
Wind Visibility Clouds Conditions
60° at 6 knots 2 miles
  • Overcast at 1,500' AGL
  • Light Snow
  • Mist
From Jan-19 @ 06:00 to Jan-19 @ 13:00
FM190600 06009KT 1 1/2SM -SN BR OVC007
Wind Visibility Clouds Conditions
60° at 9 knots 1 1/2 miles
  • Overcast at 700' AGL
  • Light Snow
  • Mist
From Jan-19 @ 13:00 to Jan-19 @ 17:00
FM191300 05011G20KT 1 1/2SM -SN OVC017
Wind Visibility Clouds Conditions
50° at 11 knots
 Gusting to 20 knots
1 1/2 miles
  • Overcast at 1,700' AGL
  • Light Snow
From Jan-19 @ 17:00 to Jan-20 @ 00:00
FM191700 05014KT P6SM OVC015
Wind Visibility Clouds
50° at 14 knots Greater than 6 miles
  • Overcast at 1,500' AGL
KLAN 182340Z 1900/1924 01006KT P6SM OVC050 FM190230 06006KT 2SM -SN BR OVC015 FM190600 06009KT 1 1/2SM -SN BR OVC007 FM191300 05011G20KT 1 1/2SM -SN OVC017 FM191700 05014KT P6SM OVC015
Issued Jan-18 @ 23:40 UTC
(3 hours ago)
Valid From Jan-19 @ 00:00 UTC
(2 hours ago)
Valid To Jan-20 @ 00:00 UTC
(in 22 hours)
Jan-19 @ 00:00 - Jan-19 @ 02:30
Wind Visibility
10° at 6 knots Greater than 6 miles
Clouds
  • Overcast at 5,000' AGL
From Jan-19 @ 02:30 - Jan-19 @ 06:00
Wind Visibility
60° at 6 knots 2 miles
Clouds
  • Overcast at 1,500' AGL
Conditions
  • Light Snow
  • Mist
From Jan-19 @ 06:00 - Jan-19 @ 13:00
Wind Visibility
60° at 9 knots 1 1/2 miles
Clouds
  • Overcast at 700' AGL
Conditions
  • Light Snow
  • Mist
From Jan-19 @ 13:00 - Jan-19 @ 17:00
Wind Visibility
50° at 11 knots
 Gusting to 20 knots
1 1/2 miles
Clouds
  • Overcast at 1,700' AGL
Conditions
  • Light Snow
From Jan-19 @ 17:00 - Jan-20 @ 00:00
Wind Visibility
50° at 14 knots Greater than 6 miles
Clouds
  • Overcast at 1,500' AGL